sensor_id;sensor_type;location;lat;lon;timestamp;pressure;altitude;pressure_sealevel;temperature
77418;BMP280;66490;51.484;0.026;2023-01-01T00:01:59;100159.38;;;12.93
77418;BMP280;66490;51.484;0.026;2023-01-01T00:04:25;100134.81;;;12.76
77418;BMP280;66490;51.484;0.026;2023-01-01T00:06:54;100158.69;;;12.85
77418;BMP280;66490;51.484;0.026;2023-01-01T00:09:21;100171.59;;;13.04
77418;BMP280;66490;51.484;0.026;2023-01-01T00:12:06;100187.81;;;13.08
77418;BMP280;66490;51.484;0.026;2023-01-01T00:14:32;100178.53;;;13.05
77418;BMP280;66490;51.484;0.026;2023-01-01T00:16:58;100177.38;;;13.06
77418;BMP280;66490;51.484;0.026;2023-01-01T00:19:24;100179.81;;;12.97
77418;BMP280;66490;51.484;0.026;2023-01-01T00:21:49;100193.25;;;13.04
77418;BMP280;66490;51.484;0.026;2023-01-01T00:24:15;100205.19;;;13.10
77418;BMP280;66490;51.484;0.026;2023-01-01T00:26:41;100207.41;;;12.85
77418;BMP280;66490;51.484;0.026;2023-01-01T00:29:07;100183.84;;;12.52
77418;BMP280;66490;51.484;0.026;2023-01-01T00:31:32;100181.34;;;12.30
77418;BMP280;66490;51.484;0.026;2023-01-01T00:34:03;100185.66;;;12.21
77418;BMP280;66490;51.484;0.026;2023-01-01T00:36:29;100181.09;;;12.14
77418;BMP280;66490;51.484;0.026;2023-01-01T00:38:55;100183.91;;;12.00
77418;BMP280;66490;51.484;0.026;2023-01-01T00:41:23;100195.84;;;12.10
77418;BMP280;66490;51.484;0.026;2023-01-01T00:43:49;100213.94;;;12.13
77418;BMP280;66490;51.484;0.026;2023-01-01T00:46:15;100221.25;;;12.19
77418;BMP280;66490;51.484;0.026;2023-01-01T00:48:42;100199.72;;;12.05
77418;BMP280;66490;51.484;0.026;2023-01-01T00:51:08;100199.72;;;12.05
77418;BMP280;66490;51.484;0.026;2023-01-01T00:53:34;100226.19;;;12.28
77418;BMP280;66490;51.484;0.026;2023-01-01T00:56:00;100230.47;;;12.25
77418;BMP280;66490;51.484;0.026;2023-01-01T00:58:25;100208.22;;;12.07
77418;BMP280;66490;51.484;0.026;2023-01-01T01:00:52;100236.72;;;12.19
77418;BMP280;66490;51.484;0.026;2023-01-01T01:03:38;100235.19;;;12.14
77418;BMP280;66490;51.484;0.026;2023-01-01T01:08:31;100230.22;;;12.09
77418;BMP280;66490;51.484;0.026;2023-01-01T01:11:05;100216.41;;;11.96
77418;BMP280;66490;51.484;0.026;2023-01-01T01:13:31;100244.53;;;12.06
77418;BMP280;66490;51.484;0.026;2023-01-01T01:15:56;100223.34;;;11.97
77418;BMP280;66490;51.484;0.026;2023-01-01T01:18:22;100201.47;;;11.78
77418;BMP280;66490;51.484;0.026;2023-01-01T01:20:50;100245.38;;;11.96
77418;BMP280;66490;51.484;0.026;2023-01-01T01:23:17;100243.72;;;12.06
77418;BMP280;66490;51.484;0.026;2023-01-01T01:25:43;100249.31;;;11.88
77418;BMP280;66490;51.484;0.026;2023-01-01T01:28:08;100246.91;;;11.97
77418;BMP280;66490;51.484;0.026;2023-01-01T01:30:36;100271.59;;;11.99
77418;BMP280;66490;51.484;0.026;2023-01-01T01:33:02;100281.63;;;12.02
77418;BMP280;66490;51.484;0.026;2023-01-01T01:35:27;100280.91;;;11.98
77418;BMP280;66490;51.484;0.026;2023-01-01T01:37:54;100287.09;;;11.95
77418;BMP280;66490;51.484;0.026;2023-01-01T01:40:20;100283.22;;;11.96
77418;BMP280;66490;51.484;0.026;2023-01-01T01:42:47;100297.53;;;11.96
77418;BMP280;66490;51.484;0.026;2023-01-01T01:45:16;100271.66;;;11.92
77418;BMP280;66490;51.484;0.026;2023-01-01T01:47:51;100254.41;;;11.72
77418;BMP280;66490;51.484;0.026;2023-01-01T01:50:25;100275.19;;;11.82
77418;BMP280;66490;51.484;0.026;2023-01-01T01:55:28;100311.75;;;12.00
77418;BMP280;66490;51.484;0.026;2023-01-01T01:57:55;100311.75;;;12.08
77418;BMP280;66490;51.484;0.026;2023-01-01T02:00:21;100310.66;;;11.98
77418;BMP280;66490;51.484;0.026;2023-01-01T02:02:55;100302.59;;;11.84
77418;BMP280;66490;51.484;0.026;2023-01-01T02:05:22;100327.22;;;12.00
77418;BMP280;66490;51.484;0.026;2023-01-01T02:07:51;100326.06;;;12.01
77418;BMP280;66490;51.484;0.026;2023-01-01T02:10:17;100313.03;;;11.89
77418;BMP280;66490;51.484;0.026;2023-01-01T02:12:44;100301.84;;;11.83
77418;BMP280;66490;51.484;0.026;2023-01-01T02:15:10;100312.72;;;11.73
77418;BMP280;66490;51.484;0.026;2023-01-01T02:17:39;100345.78;;;11.98
77418;BMP280;66490;51.484;0.026;2023-01-01T02:20:47;100310.41;;;11.71
77418;BMP280;66490;51.484;0.026;2023-01-01T02:32:04;100360.59;;;11.76
77418;BMP280;66490;51.484;0.026;2023-01-01T02:34:35;100379.91;;;11.71
77418;BMP280;66490;51.484;0.026;2023-01-01T02:37:07;100387.63;;;11.76
77418;BMP280;66490;51.484;0.026;2023-01-01T02:39:36;100362.19;;;11.59
77418;BMP280;66490;51.484;0.026;2023-01-01T02:42:06;100360.28;;;11.52
77418;BMP280;66490;51.484;0.026;2023-01-01T02:44:40;100386.84;;;11.72
77418;BMP280;66490;51.484;0.026;2023-01-01T02:47:14;100367.56;;;11.62
77418;BMP280;66490;51.484;0.026;2023-01-01T02:49:57;100391.88;;;11.70
77418;BMP280;66490;51.484;0.026;2023-01-01T02:52:40;100403.09;;;11.64
77418;BMP280;66490;51.484;0.026;2023-01-01T02:55:24;100401.53;;;11.63
77418;BMP280;66490;51.484;0.026;2023-01-01T03:01:36;100417.78;;;11.56
77418;BMP280;66490;51.484;0.026;2023-01-01T03:06:50;100410.84;;;11.48
77418;BMP280;66490;51.484;0.026;2023-01-01T03:12:07;100418.94;;;11.41
77418;BMP280;66490;51.484;0.026;2023-01-01T03:14:57;100420.50;;;11.49
77418;BMP280;66490;51.484;0.026;2023-01-01T03:17:32;100426.28;;;11.51
77418;BMP280;66490;51.484;0.026;2023-01-01T03:20:03;100410.09;;;11.51
77418;BMP280;66490;51.484;0.026;2023-01-01T03:22:32;100420.09;;;11.54
77418;BMP280;66490;51.484;0.026;2023-01-01T03:25:08;100418.94;;;11.48
77418;BMP280;66490;51.484;0.026;2023-01-01T03:27:47;100429.38;;;11.53
77418;BMP280;66490;51.484;0.026;2023-01-01T03:30:15;100425.53;;;11.47
77418;BMP280;66490;51.484;0.026;2023-01-01T03:32:54;100409.34;;;11.37
77418;BMP280;66490;51.484;0.026;2023-01-01T03:38:22;100443.66;;;11.43
77418;BMP280;66490;51.484;0.026;2023-01-01T03:40:53;100435.56;;;11.36
77418;BMP280;66490;51.484;0.026;2023-01-01T03:46:03;100449.47;;;11.38
77418;BMP280;66490;51.484;0.026;2023-01-01T03:48:32;100444.06;;;11.27
77418;BMP280;66490;51.484;0.026;2023-01-01T03:54:08;100445.63;;;11.28
77418;BMP280;66490;51.484;0.026;2023-01-01T03:56:51;100451.78;;;11.36
77418;BMP280;66490;51.484;0.026;2023-01-01T03:59:23;100450.25;;;11.28
77418;BMP280;66490;51.484;0.026;2023-01-01T04:01:56;100449.50;;;11.24
77418;BMP280;66490;51.484;0.026;2023-01-01T04:04:23;100455.66;;;11.21
77418;BMP280;66490;51.484;0.026;2023-01-01T04:06:51;100471.06;;;11.20
77418;BMP280;66490;51.484;0.026;2023-01-01T04:09:22;100464.91;;;11.20
77418;BMP280;66490;51.484;0.026;2023-01-01T04:11:48;100463.38;;;11.15
77418;BMP280;66490;51.484;0.026;2023-01-01T04:17:01;100464.16;;;11.16
77418;BMP280;66490;51.484;0.026;2023-01-01T04:19:27;100454.88;;;11.10
77418;BMP280;66490;51.484;0.026;2023-01-01T04:21:53;100470.28;;;11.16
77418;BMP280;66490;51.484;0.026;2023-01-01T04:24:19;100473.00;;;11.20
77418;BMP280;66490;51.484;0.026;2023-01-01T04:26:45;100481.09;;;11.20
77418;BMP280;66490;51.484;0.026;2023-01-01T04:29:10;100476.88;;;11.12
77418;BMP280;66490;51.484;0.026;2023-01-01T04:31:36;100496.16;;;11.21
77418;BMP280;66490;51.484;0.026;2023-01-01T04:34:03;100508.09;;;11.16
77418;BMP280;66490;51.484;0.026;2023-01-01T04:36:28;100502.34;;;11.14
77418;BMP280;66490;51.484;0.026;2023-01-01T04:38:55;100504.25;;;11.14
77418;BMP280;66490;51.484;0.026;2023-01-01T04:41:21;100489.22;;;11.02
77418;BMP280;66490;51.484;0.026;2023-01-01T04:43:47;100511.19;;;11.22
77418;BMP280;66490;51.484;0.026;2023-01-01T04:46:17;100514.66;;;11.19
77418;BMP280;66490;51.484;0.026;2023-01-01T04:48:44;100511.19;;;11.22
77418;BMP280;66490;51.484;0.026;2023-01-01T04:51:15;100520.47;;;11.24
77418;BMP280;66490;51.484;0.026;2023-01-01T04:53:43;100523.94;;;11.28
77418;BMP280;66490;51.484;0.026;2023-01-01T04:56:14;100519.72;;;11.27
77418;BMP280;66490;51.484;0.026;2023-01-01T04:58:41;100516.22;;;11.20
77418;BMP280;66490;51.484;0.026;2023-01-01T05:01:07;100530.09;;;11.22
77418;BMP280;66490;51.484;0.026;2023-01-01T05:03:38;100535.13;;;11.27
77418;BMP280;66490;51.484;0.026;2023-01-01T05:06:09;100541.69;;;11.26
77418;BMP280;66490;51.484;0.026;2023-01-01T05:08:37;100530.53;;;11.24
77418;BMP280;66490;51.484;0.026;2023-01-01T05:11:09;100526.25;;;11.26
77418;BMP280;66490;51.484;0.026;2023-01-01T05:13:38;100529.75;;;11.38
77418;BMP280;66490;51.484;0.026;2023-01-01T05:16:06;100538.97;;;11.40
77418;BMP280;66490;51.484;0.026;2023-01-01T05:18:33;100541.31;;;11.35
77418;BMP280;66490;51.484;0.026;2023-01-01T05:21:08;100542.84;;;11.32
77418;BMP280;66490;51.484;0.026;2023-01-01T05:23:34;100545.56;;;11.25
77418;BMP280;66490;51.484;0.026;2023-01-01T05:26:00;100536.69;;;11.28
77418;BMP280;66490;51.484;0.026;2023-01-01T05:28:35;100552.13;;;11.31
77418;BMP280;66490;51.484;0.026;2023-01-01T05:31:24;100559.06;;;11.28
77418;BMP280;66490;51.484;0.026;2023-01-01T05:33:51;100549.78;;;11.33
77418;BMP280;66490;51.484;0.026;2023-01-01T05:36:22;100562.53;;;11.33
77418;BMP280;66490;51.484;0.026;2023-01-01T05:38:49;100557.53;;;11.38
77418;BMP280;66490;51.484;0.026;2023-01-01T05:41:16;100561.38;;;11.37
77418;BMP280;66490;51.484;0.026;2023-01-01T05:43:42;100554.81;;;11.38
77418;BMP280;66490;51.484;0.026;2023-01-01T05:46:26;100559.06;;;11.28
77418;BMP280;66490;51.484;0.026;2023-01-01T05:48:53;100554.03;;;11.27
77418;BMP280;66490;51.484;0.026;2023-01-01T05:51:23;100578.38;;;11.38
77418;BMP280;66490;51.484;0.026;2023-01-01T05:53:50;100566.78;;;11.37
77418;BMP280;66490;51.484;0.026;2023-01-01T05:56:16;100562.53;;;11.36
77418;BMP280;66490;51.484;0.026;2023-01-01T05:58:42;100577.56;;;11.41
77418;BMP280;66490;51.484;0.026;2023-01-01T06:01:13;100567.16;;;11.36
77418;BMP280;66490;51.484;0.026;2023-01-01T06:03:41;100566.41;;;11.35
77418;BMP280;66490;51.484;0.026;2023-01-01T06:06:09;100584.56;;;11.45
77418;BMP280;66490;51.484;0.026;2023-01-01T06:08:36;100593.81;;;11.44
77418;BMP280;66490;51.484;0.026;2023-01-01T06:11:05;100583.03;;;11.44
77418;BMP280;66490;51.484;0.026;2023-01-01T06:13:34;100594.22;;;11.46
77418;BMP280;66490;51.484;0.026;2023-01-01T06:16:01;100582.63;;;11.46
77418;BMP280;66490;51.484;0.026;2023-01-01T06:18:33;100608.09;;;11.48
77418;BMP280;66490;51.484;0.026;2023-01-01T06:23:28;100609.22;;;11.40
77418;BMP280;66490;51.484;0.026;2023-01-01T06:25:54;100593.41;;;11.35
77418;BMP280;66490;51.484;0.026;2023-01-01T06:28:20;100603.81;;;11.40
77418;BMP280;66490;51.484;0.026;2023-01-01T06:30:45;100613.09;;;11.28
77418;BMP280;66490;51.484;0.026;2023-01-01T06:33:11;100608.44;;;11.22
77418;BMP280;66490;51.484;0.026;2023-01-01T06:35:36;100611.94;;;11.26
77418;BMP280;66490;51.484;0.026;2023-01-01T06:38:02;100620.41;;;11.24
77418;BMP280;66490;51.484;0.026;2023-01-01T06:40:27;100637.38;;;11.25
77418;BMP280;66490;51.484;0.026;2023-01-01T06:42:53;100613.06;;;11.07
77418;BMP280;66490;51.484;0.026;2023-01-01T06:45:19;100626.16;;;11.09
77418;BMP280;66490;51.484;0.026;2023-01-01T06:47:52;100632.75;;;11.22
77418;BMP280;66490;51.484;0.026;2023-01-01T06:50:17;100637.75;;;11.20
77418;BMP280;66490;51.484;0.026;2023-01-01T06:52:43;100654.34;;;11.15
77418;BMP280;66490;51.484;0.026;2023-01-01T06:55:08;100639.28;;;11.10
77418;BMP280;66490;51.484;0.026;2023-01-01T06:57:34;100648.56;;;11.20
77418;BMP280;66490;51.484;0.026;2023-01-01T07:00:00;100655.50;;;11.14
77418;BMP280;66490;51.484;0.026;2023-01-01T07:02:26;100664.00;;;11.16
77418;BMP280;66490;51.484;0.026;2023-01-01T07:04:51;100657.03;;;11.15
77418;BMP280;66490;51.484;0.026;2023-01-01T07:07:17;100675.97;;;11.22
77418;BMP280;66490;51.484;0.026;2023-01-01T07:09:43;100675.59;;;11.23
77418;BMP280;66490;51.484;0.026;2023-01-01T07:12:08;100688.72;;;11.32
77418;BMP280;66490;51.484;0.026;2023-01-01T07:14:34;100695.31;;;11.31
77418;BMP280;66490;51.484;0.026;2023-01-01T07:16:59;100688.34;;;11.30
77418;BMP280;66490;51.484;0.026;2023-01-01T07:19:25;100691.81;;;11.27
77418;BMP280;66490;51.484;0.026;2023-01-01T07:21:52;100695.66;;;11.26
77418;BMP280;66490;51.484;0.026;2023-01-01T07:24:18;100704.19;;;11.39
77418;BMP280;66490;51.484;0.026;2023-01-01T07:26:44;100710.34;;;11.39
77418;BMP280;66490;51.484;0.026;2023-01-01T07:29:10;100699.53;;;11.36
77418;BMP280;66490;51.484;0.026;2023-01-01T07:31:39;100694.13;;;11.32
77418;BMP280;66490;51.484;0.026;2023-01-01T07:34:08;100696.81;;;11.32
77418;BMP280;66490;51.484;0.026;2023-01-01T07:36:33;100692.91;;;11.19
77418;BMP280;66490;51.484;0.026;2023-01-01T07:38:59;100707.63;;;11.32
77418;BMP280;66490;51.484;0.026;2023-01-01T07:41:25;100703.75;;;11.26
77418;BMP280;66490;51.484;0.026;2023-01-01T07:43:50;100711.09;;;11.25
77418;BMP280;66490;51.484;0.026;2023-01-01T07:46:16;100708.78;;;11.24
77418;BMP280;66490;51.484;0.026;2023-01-01T07:48:43;100714.53;;;11.19
77418;BMP280;66490;51.484;0.026;2023-01-01T07:51:09;100716.91;;;11.24
77418;BMP280;66490;51.484;0.026;2023-01-01T07:53:37;100717.28;;;11.26
77418;BMP280;66490;51.484;0.026;2023-01-01T07:56:03;100703.31;;;11.10
77418;BMP280;66490;51.484;0.026;2023-01-01T07:58:28;100711.81;;;11.08
77418;BMP280;66490;51.484;0.026;2023-01-01T08:00:54;100722.19;;;11.03
77418;BMP280;66490;51.484;0.026;2023-01-01T08:03:19;100724.13;;;11.09
77418;BMP280;66490;51.484;0.026;2023-01-01T08:05:45;100741.50;;;11.12
77418;BMP280;66490;51.484;0.026;2023-01-01T08:08:11;100735.69;;;11.03
77418;BMP280;66490;51.484;0.026;2023-01-01T08:10:36;100741.81;;;10.96
77418;BMP280;66490;51.484;0.026;2023-01-01T08:13:04;100738.75;;;10.98
77418;BMP280;66490;51.484;0.026;2023-01-01T08:15:31;100727.91;;;10.94
77418;BMP280;66490;51.484;0.026;2023-01-01T08:17:59;100755.75;;;11.09
77418;BMP280;66490;51.484;0.026;2023-01-01T08:20:25;100744.91;;;10.98
77418;BMP280;66490;51.484;0.026;2023-01-01T08:22:51;100749.94;;;11.00
77418;BMP280;66490;51.484;0.026;2023-01-01T08:25:17;100748.84;;;11.08
77418;BMP280;66490;51.484;0.026;2023-01-01T08:27:42;100747.63;;;11.02
77418;BMP280;66490;51.484;0.026;2023-01-01T08:30:10;100759.25;;;11.09
77418;BMP280;66490;51.484;0.026;2023-01-01T08:32:36;100750.38;;;11.09
77418;BMP280;66490;51.484;0.026;2023-01-01T08:35:02;100748.00;;;10.97
77418;BMP280;66490;51.484;0.026;2023-01-01T08:37:28;100758.41;;;10.98
77418;BMP280;66490;51.484;0.026;2023-01-01T08:39:54;100765.38;;;11.03
77418;BMP280;66490;51.484;0.026;2023-01-01T08:42:20;100751.81;;;10.88
77418;BMP280;66490;51.484;0.026;2023-01-01T08:44:46;100764.25;;;11.04
77418;BMP280;66490;51.484;0.026;2023-01-01T08:47:21;100756.13;;;11.00
77418;BMP280;66490;51.484;0.026;2023-01-01T08:49:46;100766.50;;;10.98
77418;BMP280;66490;51.484;0.026;2023-01-01T08:52:13;100760.41;;;11.08
77418;BMP280;66490;51.484;0.026;2023-01-01T08:54:39;100749.53;;;10.98
77418;BMP280;66490;51.484;0.026;2023-01-01T08:57:05;100756.84;;;11.01
77418;BMP280;66490;51.484;0.026;2023-01-01T08:59:31;100752.69;;;11.07
77418;BMP280;66490;51.484;0.026;2023-01-01T09:01:56;100759.53;;;10.93
77418;BMP280;66490;51.484;0.026;2023-01-01T09:04:21;100774.28;;;11.07
77418;BMP280;66490;51.484;0.026;2023-01-01T09:06:47;100776.53;;;10.98
77418;BMP280;66490;51.484;0.026;2023-01-01T09:09:13;100765.72;;;10.90
77418;BMP280;66490;51.484;0.026;2023-01-01T09:11:39;100768.00;;;10.88
77418;BMP280;66490;51.484;0.026;2023-01-01T09:14:04;100771.91;;;10.98
77418;BMP280;66490;51.484;0.026;2023-01-01T09:16:30;100771.88;;;10.94
77418;BMP280;66490;51.484;0.026;2023-01-01T09:18:55;100789.72;;;11.10
77418;BMP280;66490;51.484;0.026;2023-01-01T09:21:21;100787.41;;;11.12
77418;BMP280;66490;51.484;0.026;2023-01-01T09:23:46;100791.34;;;11.25
77418;BMP280;66490;51.484;0.026;2023-01-01T09:26:13;100780.94;;;11.27
77418;BMP280;66490;51.484;0.026;2023-01-01T09:28:39;100788.31;;;11.30
77418;BMP280;66490;51.484;0.026;2023-01-01T09:31:05;100797.59;;;11.43
77418;BMP280;66490;51.484;0.026;2023-01-01T09:33:32;100805.69;;;11.43
77418;BMP280;66490;51.484;0.026;2023-01-01T09:36:34;100819.97;;;11.40
77418;BMP280;66490;51.484;0.026;2023-01-01T09:39:00;100826.97;;;11.55
77418;BMP280;66490;51.484;0.026;2023-01-01T09:44:05;100845.19;;;11.65
77418;BMP280;66490;51.484;0.026;2023-01-01T09:46:34;100847.06;;;11.61
77418;BMP280;66490;51.484;0.026;2023-01-01T09:49:14;100837.03;;;11.62
77418;BMP280;66490;51.484;0.026;2023-01-01T09:51:42;100828.53;;;11.56
77418;BMP280;66490;51.484;0.026;2023-01-01T09:54:31;100856.78;;;11.70
77418;BMP280;66490;51.484;0.026;2023-01-01T09:57:04;100858.75;;;11.76
77418;BMP280;66490;51.484;0.026;2023-01-01T09:59:31;100861.06;;;11.78
77418;BMP280;66490;51.484;0.026;2023-01-01T10:02:13;100857.19;;;11.75
77418;BMP280;66490;51.484;0.026;2023-01-01T10:05:02;100851.03;;;11.75
77418;BMP280;66490;51.484;0.026;2023-01-01T10:15:22;100854.94;;;11.95
77418;BMP280;66490;51.484;0.026;2023-01-01T10:17:53;100855.69;;;11.92
77418;BMP280;66490;51.484;0.026;2023-01-01T10:22:53;100860.00;;;12.07
77418;BMP280;66490;51.484;0.026;2023-01-01T10:25:30;100857.69;;;12.16
77418;BMP280;66490;51.484;0.026;2023-01-01T10:28:22;100869.31;;;12.27
77418;BMP280;66490;51.484;0.026;2023-01-01T10:33:45;100862.75;;;12.28
77418;BMP280;66490;51.484;0.026;2023-01-01T10:36:15;100855.78;;;12.27
77418;BMP280;66490;51.484;0.026;2023-01-01T10:38:42;100843.41;;;12.19
77418;BMP280;66490;51.484;0.026;2023-01-01T10:41:10;100857.31;;;12.25
77418;BMP280;66490;51.484;0.026;2023-01-01T10:43:35;100850.38;;;12.27
77418;BMP280;66490;51.484;0.026;2023-01-01T10:46:02;100854.25;;;12.41
77418;BMP280;66490;51.484;0.026;2023-01-01T10:48:31;100847.69;;;12.38
77418;BMP280;66490;51.484;0.026;2023-01-01T10:51:14;100839.19;;;12.47
77418;BMP280;66490;51.484;0.026;2023-01-01T11:06:38;100850.38;;;12.42
77418;BMP280;66490;51.484;0.026;2023-01-01T11:09:20;100862.38;;;12.48
77418;BMP280;66490;51.484;0.026;2023-01-01T11:11:54;100857.34;;;12.46
77418;BMP280;66490;51.484;0.026;2023-01-01T11:14:28;100856.56;;;12.46
77418;BMP280;66490;51.484;0.026;2023-01-01T11:16:54;100855.03;;;12.59
77418;BMP280;66490;51.484;0.026;2023-01-01T11:19:30;100850.38;;;12.56
77418;BMP280;66490;51.484;0.026;2023-01-01T11:22:00;100845.75;;;12.53
77418;BMP280;66490;51.484;0.026;2023-01-01T11:24:28;100839.56;;;12.52
77418;BMP280;66490;51.484;0.026;2023-01-01T11:27:23;100849.22;;;12.67
77418;BMP280;66490;51.484;0.026;2023-01-01T11:29:50;100844.19;;;12.66
77418;BMP280;66490;51.484;0.026;2023-01-01T11:32:35;100841.91;;;12.75
77418;BMP280;66490;51.484;0.026;2023-01-01T11:35:05;100830.66;;;12.76
77418;BMP280;66490;51.484;0.026;2023-01-01T11:37:34;100824.09;;;12.74
77418;BMP280;66490;51.484;0.026;2023-01-01T11:40:06;100838.75;;;12.87
77418;BMP280;66490;51.484;0.026;2023-01-01T11:42:44;100838.78;;;12.80
77418;BMP280;66490;51.484;0.026;2023-01-01T11:45:19;100827.56;;;12.78
77418;BMP280;66490;51.484;0.026;2023-01-01T11:47:51;100836.84;;;12.77
77418;BMP280;66490;51.484;0.026;2023-01-01T11:52:48;100836.47;;;12.75
77418;BMP280;66490;51.484;0.026;2023-01-01T11:55:39;100839.56;;;12.70
77418;BMP280;66490;51.484;0.026;2023-01-01T12:03:37;100840.72;;;12.76
77418;BMP280;66490;51.484;0.026;2023-01-01T12:06:11;100835.69;;;12.67
77418;BMP280;66490;51.484;0.026;2023-01-01T12:09:13;100834.53;;;12.72
77418;BMP280;66490;51.484;0.026;2023-01-01T12:11:47;100839.16;;;12.79
77418;BMP280;66490;51.484;0.026;2023-01-01T12:14:51;100834.13;;;12.81
77418;BMP280;66490;51.484;0.026;2023-01-01T12:17:31;100839.56;;;12.70
77418;BMP280;66490;51.484;0.026;2023-01-01T12:20:03;100836.47;;;12.68
77418;BMP280;66490;51.484;0.026;2023-01-01T12:22:31;100834.53;;;12.72
77418;BMP280;66490;51.484;0.026;2023-01-01T12:24:57;100825.66;;;12.75
77418;BMP280;66490;51.484;0.026;2023-01-01T12:30:16;100836.84;;;12.77
77418;BMP280;66490;51.484;0.026;2023-01-01T12:35:52;100837.63;;;12.81
77418;BMP280;66490;51.484;0.026;2023-01-01T12:41:37;100823.31;;;12.81
77418;BMP280;66490;51.484;0.026;2023-01-01T12:44:22;100822.13;;;12.85
77418;BMP280;66490;51.484;0.026;2023-01-01T12:49:46;100810.16;;;12.75
77418;BMP280;66490;51.484;0.026;2023-01-01T12:52:30;100817.13;;;12.80
77418;BMP280;66490;51.484;0.026;2023-01-01T12:55:16;100824.84;;;12.92
77418;BMP280;66490;51.484;0.026;2023-01-01T12:57:56;100827.94;;;12.94
77418;BMP280;66490;51.484;0.026;2023-01-01T13:00:24;100830.63;;;12.87
77418;BMP280;66490;51.484;0.026;2023-01-01T13:03:05;100824.84;;;12.85
77418;BMP280;66490;51.484;0.026;2023-01-01T13:05:39;100812.06;;;12.82
77418;BMP280;66490;51.484;0.026;2023-01-01T13:08:06;100832.56;;;12.87
77418;BMP280;66490;51.484;0.026;2023-01-01T13:10:41;100808.97;;;12.87
77418;BMP280;66490;51.484;0.026;2023-01-01T13:13:09;100820.97;;;12.86
77418;BMP280;66490;51.484;0.026;2023-01-01T13:18:16;100816.34;;;12.76
77418;BMP280;66490;51.484;0.026;2023-01-01T13:20:56;100807.06;;;12.70
77418;BMP280;66490;51.484;0.026;2023-01-01T13:34:32;100811.72;;;12.66
77418;BMP280;66490;51.484;0.026;2023-01-01T13:45:03;100804.75;;;12.65
77418;BMP280;66490;51.484;0.026;2023-01-01T14:05:05;100792.75;;;12.66
77418;BMP280;66490;51.484;0.026;2023-01-01T14:10:36;100789.28;;;12.65
77418;BMP280;66490;51.484;0.026;2023-01-01T14:15:36;100801.28;;;12.61
77418;BMP280;66490;51.484;0.026;2023-01-01T14:18:14;100793.13;;;12.64
77418;BMP280;66490;51.484;0.026;2023-01-01T14:20:44;100792.38;;;12.60
77418;BMP280;66490;51.484;0.026;2023-01-01T14:23:14;100780.81;;;12.53
77418;BMP280;66490;51.484;0.026;2023-01-01T14:25:43;100791.22;;;12.65
77418;BMP280;66490;51.484;0.026;2023-01-01T14:28:19;100775.38;;;12.56
77418;BMP280;66490;51.484;0.026;2023-01-01T14:30:46;100774.59;;;12.56
77418;BMP280;66490;51.484;0.026;2023-01-01T14:33:27;100764.56;;;12.53
77418;BMP280;66490;51.484;0.026;2023-01-01T14:36:04;100769.19;;;12.49
77418;BMP280;66490;51.484;0.026;2023-01-01T14:38:33;100742.13;;;12.34
77418;BMP280;66490;51.484;0.026;2023-01-01T14:43:26;100760.69;;;12.36
77418;BMP280;66490;51.484;0.026;2023-01-01T14:45:52;100768.44;;;12.37
77418;BMP280;66490;51.484;0.026;2023-01-01T14:48:19;100753.34;;;12.29
77418;BMP280;66490;51.484;0.026;2023-01-01T14:50:52;100735.22;;;12.12
77418;BMP280;66490;51.484;0.026;2023-01-01T14:53:34;100739.81;;;12.15
77418;BMP280;66490;51.484;0.026;2023-01-01T14:56:05;100751.44;;;12.33
77418;BMP280;66490;51.484;0.026;2023-01-01T14:58:32;100739.81;;;12.22
77418;BMP280;66490;51.484;0.026;2023-01-01T15:01:22;100752.19;;;12.30
77418;BMP280;66490;51.484;0.026;2023-01-01T15:06:22;100730.56;;;12.16
77418;BMP280;66490;51.484;0.026;2023-01-01T15:08:49;100731.31;;;12.13
77418;BMP280;66490;51.484;0.026;2023-01-01T15:11:15;100747.16;;;12.25
77418;BMP280;66490;51.484;0.026;2023-01-01T15:13:52;100746.00;;;12.16
77418;BMP280;66490;51.484;0.026;2023-01-01T15:16:18;100737.53;;;12.10
77418;BMP280;66490;51.484;0.026;2023-01-01T15:18:45;100753.34;;;12.26
77418;BMP280;66490;51.484;0.026;2023-01-01T15:24:17;100730.56;;;12.16
77418;BMP280;66490;51.484;0.026;2023-01-01T15:26:52;100742.91;;;12.21
77418;BMP280;66490;51.484;0.026;2023-01-01T15:29:28;100750.66;;;12.19
77418;BMP280;66490;51.484;0.026;2023-01-01T15:32:09;100746.03;;;12.12
77418;BMP280;66490;51.484;0.026;2023-01-01T15:34:47;100749.09;;;12.03
77418;BMP280;66490;51.484;0.026;2023-01-01T15:37:15;100760.72;;;12.11
77418;BMP280;66490;51.484;0.026;2023-01-01T15:39:46;100767.66;;;12.12
77418;BMP280;66490;51.484;0.026;2023-01-01T15:42:36;100763.41;;;12.11
77418;BMP280;66490;51.484;0.026;2023-01-01T15:45:24;100752.19;;;12.09
77418;BMP280;66490;51.484;0.026;2023-01-01T15:47:53;100756.81;;;12.05
77418;BMP280;66490;51.484;0.026;2023-01-01T15:50:24;100761.84;;;12.07
77418;BMP280;66490;51.484;0.026;2023-01-01T15:52:53;100752.97;;;12.06
77418;BMP280;66490;51.484;0.026;2023-01-01T15:55:20;100752.19;;;12.02
77418;BMP280;66490;51.484;0.026;2023-01-01T15:57:46;100744.47;;;11.97
77418;BMP280;66490;51.484;0.026;2023-01-01T16:00:20;100749.09;;;12.07
77418;BMP280;66490;51.484;0.026;2023-01-01T16:02:50;100734.78;;;11.92
77418;BMP280;66490;51.484;0.026;2023-01-01T16:05:21;100722.44;;;11.95
77418;BMP280;66490;51.484;0.026;2023-01-01T16:07:57;100732.09;;;11.89
77418;BMP280;66490;51.484;0.026;2023-01-01T16:14:27;100683.03;;;11.69
77418;BMP280;66490;51.484;0.026;2023-01-01T16:22:30;100725.53;;;11.97
77418;BMP280;66490;51.484;0.026;2023-01-01T16:29:03;100729.75;;;11.66
77418;BMP280;66490;51.484;0.026;2023-01-01T16:39:14;100720.59;;;10.33
77418;BMP280;66490;51.484;0.026;2023-01-01T16:42:27;100697.88;;;9.93
77418;BMP280;66490;51.484;0.026;2023-01-01T16:44:56;100706.38;;;9.92
77418;BMP280;66490;51.484;0.026;2023-01-01T16:51:42;100695.53;;;9.84
77418;BMP280;66490;51.484;0.026;2023-01-01T16:54:14;100703.16;;;9.79
77418;BMP280;66490;51.484;0.026;2023-01-01T16:57:12;100724.47;;;9.95
77418;BMP280;66490;51.484;0.026;2023-01-01T16:59:46;100705.53;;;9.84